sensor_id;sensor_type;location;lat;lon;timestamp;P1;durP1;ratioP1;P2;durP2;ratioP2
29206;SDS011;16247;50.840;4.382;2023-05-20T00:00:41;10.52;;;4.28;;
29206;SDS011;16247;50.840;4.382;2023-05-20T00:03:10;11.30;;;4.32;;
29206;SDS011;16247;50.840;4.382;2023-05-20T00:05:35;8.07;;;4.10;;
29206;SDS011;16247;50.840;4.382;2023-05-20T00:08:01;9.05;;;4.68;;
29206;SDS011;16247;50.840;4.382;2023-05-20T00:10:31;7.63;;;4.07;;
29206;SDS011;16247;50.840;4.382;2023-05-20T00:12:57;11.98;;;4.00;;
29206;SDS011;16247;50.840;4.382;2023-05-20T00:15:22;6.75;;;4.03;;
29206;SDS011;16247;50.840;4.382;2023-05-20T00:17:48;7.55;;;4.45;;
29206;SDS011;16247;50.840;4.382;2023-05-20T00:20:14;5.13;;;3.88;;
29206;SDS011;16247;50.840;4.382;2023-05-20T00:22:40;10.50;;;4.32;;
29206;SDS011;16247;50.840;4.382;2023-05-20T00:25:05;7.50;;;4.68;;
29206;SDS011;16247;50.840;4.382;2023-05-20T00:27:31;7.43;;;3.95;;
29206;SDS011;16247;50.840;4.382;2023-05-20T00:29:57;12.18;;;4.53;;
29206;SDS011;16247;50.840;4.382;2023-05-20T00:32:23;8.85;;;3.95;;
29206;SDS011;16247;50.840;4.382;2023-05-20T00:34:56;11.68;;;5.20;;
29206;SDS011;16247;50.840;4.382;2023-05-20T00:37:23;11.00;;;4.75;;
29206;SDS011;16247;50.840;4.382;2023-05-20T00:39:50;11.63;;;5.78;;
29206;SDS011;16247;50.840;4.382;2023-05-20T00:42:19;10.40;;;4.50;;
29206;SDS011;16247;50.840;4.382;2023-05-20T00:44:45;8.45;;;4.35;;
29206;SDS011;16247;50.840;4.382;2023-05-20T00:47:13;7.82;;;4.50;;
29206;SDS011;16247;50.840;4.382;2023-05-20T00:49:40;10.88;;;4.38;;
29206;SDS011;16247;50.840;4.382;2023-05-20T00:52:08;12.90;;;5.05;;
29206;SDS011;16247;50.840;4.382;2023-05-20T00:54:34;9.38;;;4.63;;
29206;SDS011;16247;50.840;4.382;2023-05-20T00:57:00;5.93;;;4.72;;
29206;SDS011;16247;50.840;4.382;2023-05-20T00:59:28;10.48;;;4.63;;
29206;SDS011;16247;50.840;4.382;2023-05-20T01:01:54;7.18;;;4.05;;
29206;SDS011;16247;50.840;4.382;2023-05-20T01:04:22;8.27;;;4.57;;
29206;SDS011;16247;50.840;4.382;2023-05-20T01:06:48;8.90;;;5.07;;
29206;SDS011;16247;50.840;4.382;2023-05-20T01:09:14;8.38;;;4.68;;
29206;SDS011;16247;50.840;4.382;2023-05-20T01:12:26;7.65;;;4.30;;
29206;SDS011;16247;50.840;4.382;2023-05-20T01:14:48;9.02;;;4.63;;
29206;SDS011;16247;50.840;4.382;2023-05-20T01:17:15;7.85;;;4.07;;
29206;SDS011;16247;50.840;4.382;2023-05-20T01:19:55;6.97;;;4.63;;
29206;SDS011;16247;50.840;4.382;2023-05-20T01:22:27;11.43;;;4.25;;
29206;SDS011;16247;50.840;4.382;2023-05-20T01:24:56;7.97;;;5.10;;
29206;SDS011;16247;50.840;4.382;2023-05-20T01:27:22;8.75;;;4.90;;
29206;SDS011;16247;50.840;4.382;2023-05-20T01:29:49;9.13;;;4.93;;
29206;SDS011;16247;50.840;4.382;2023-05-20T01:32:20;8.25;;;5.03;;
29206;SDS011;16247;50.840;4.382;2023-05-20T01:34:47;12.70;;;4.70;;
29206;SDS011;16247;50.840;4.382;2023-05-20T01:37:16;5.68;;;4.13;;
29206;SDS011;16247;50.840;4.382;2023-05-20T01:39:43;14.00;;;4.65;;
29206;SDS011;16247;50.840;4.382;2023-05-20T01:42:13;9.35;;;4.97;;
29206;SDS011;16247;50.840;4.382;2023-05-20T01:44:40;8.80;;;4.65;;
29206;SDS011;16247;50.840;4.382;2023-05-20T01:47:06;12.20;;;4.55;;
29206;SDS011;16247;50.840;4.382;2023-05-20T01:49:31;7.35;;;4.25;;
29206;SDS011;16247;50.840;4.382;2023-05-20T01:51:57;12.20;;;5.40;;
29206;SDS011;16247;50.840;4.382;2023-05-20T01:57:45;8.23;;;4.65;;
29206;SDS011;16247;50.840;4.382;2023-05-20T02:03:33;7.45;;;5.38;;
29206;SDS011;16247;50.840;4.382;2023-05-20T02:06:01;7.00;;;4.15;;
29206;SDS011;16247;50.840;4.382;2023-05-20T02:08:27;8.82;;;4.50;;
29206;SDS011;16247;50.840;4.382;2023-05-20T02:10:52;6.70;;;4.30;;
29206;SDS011;16247;50.840;4.382;2023-05-20T02:13:18;7.18;;;4.03;;
29206;SDS011;16247;50.840;4.382;2023-05-20T02:15:44;12.15;;;4.63;;
29206;SDS011;16247;50.840;4.382;2023-05-20T02:18:09;8.00;;;4.65;;
29206;SDS011;16247;50.840;4.382;2023-05-20T02:20:36;9.77;;;4.63;;
29206;SDS011;16247;50.840;4.382;2023-05-20T02:23:02;6.22;;;3.80;;
29206;SDS011;16247;50.840;4.382;2023-05-20T02:25:32;9.63;;;3.90;;
29206;SDS011;16247;50.840;4.382;2023-05-20T02:27:58;7.90;;;3.83;;
29206;SDS011;16247;50.840;4.382;2023-05-20T02:30:24;5.10;;;3.65;;
29206;SDS011;16247;50.840;4.382;2023-05-20T02:32:50;6.10;;;3.50;;
29206;SDS011;16247;50.840;4.382;2023-05-20T02:35:17;6.43;;;3.90;;
29206;SDS011;16247;50.840;4.382;2023-05-20T02:37:44;8.25;;;4.22;;
29206;SDS011;16247;50.840;4.382;2023-05-20T02:40:10;7.45;;;4.22;;
29206;SDS011;16247;50.840;4.382;2023-05-20T02:42:35;7.60;;;4.20;;
29206;SDS011;16247;50.840;4.382;2023-05-20T02:45:01;9.23;;;4.07;;
29206;SDS011;16247;50.840;4.382;2023-05-20T02:47:27;11.02;;;5.28;;
29206;SDS011;16247;50.840;4.382;2023-05-20T02:49:53;8.88;;;4.57;;
29206;SDS011;16247;50.840;4.382;2023-05-20T02:52:19;6.20;;;4.07;;
29206;SDS011;16247;50.840;4.382;2023-05-20T02:54:45;7.82;;;4.13;;
29206;SDS011;16247;50.840;4.382;2023-05-20T02:57:11;5.80;;;4.10;;
29206;SDS011;16247;50.840;4.382;2023-05-20T02:59:37;8.43;;;4.13;;
29206;SDS011;16247;50.840;4.382;2023-05-20T03:02:03;14.43;;;4.55;;
29206;SDS011;16247;50.840;4.382;2023-05-20T03:04:32;7.63;;;3.78;;
29206;SDS011;16247;50.840;4.382;2023-05-20T03:07:02;4.75;;;3.97;;
29206;SDS011;16247;50.840;4.382;2023-05-20T03:09:35;11.55;;;3.83;;
29206;SDS011;16247;50.840;4.382;2023-05-20T03:12:01;7.38;;;3.90;;
29206;SDS011;16247;50.840;4.382;2023-05-20T03:14:27;8.38;;;3.92;;
29206;SDS011;16247;50.840;4.382;2023-05-20T03:16:53;9.73;;;4.20;;
29206;SDS011;16247;50.840;4.382;2023-05-20T03:19:21;9.50;;;4.43;;
29206;SDS011;16247;50.840;4.382;2023-05-20T03:21:47;8.50;;;3.75;;
29206;SDS011;16247;50.840;4.382;2023-05-20T03:24:15;4.93;;;4.03;;
29206;SDS011;16247;50.840;4.382;2023-05-20T03:26:41;8.45;;;4.10;;
29206;SDS011;16247;50.840;4.382;2023-05-20T03:29:08;8.40;;;4.20;;
29206;SDS011;16247;50.840;4.382;2023-05-20T03:31:36;8.15;;;4.78;;
29206;SDS011;16247;50.840;4.382;2023-05-20T03:34:02;6.00;;;3.70;;
29206;SDS011;16247;50.840;4.382;2023-05-20T03:36:28;7.35;;;4.00;;
29206;SDS011;16247;50.840;4.382;2023-05-20T03:38:55;8.38;;;4.20;;
29206;SDS011;16247;50.840;4.382;2023-05-20T03:41:28;6.53;;;3.95;;
29206;SDS011;16247;50.840;4.382;2023-05-20T03:43:54;10.02;;;4.72;;
29206;SDS011;16247;50.840;4.382;2023-05-20T03:46:20;6.28;;;4.25;;
29206;SDS011;16247;50.840;4.382;2023-05-20T03:48:46;7.63;;;4.28;;
29206;SDS011;16247;50.840;4.382;2023-05-20T03:51:11;9.27;;;4.63;;
29206;SDS011;16247;50.840;4.382;2023-05-20T03:53:37;6.50;;;3.97;;
29206;SDS011;16247;50.840;4.382;2023-05-20T03:56:03;7.90;;;4.60;;
29206;SDS011;16247;50.840;4.382;2023-05-20T03:58:29;8.80;;;4.18;;
29206;SDS011;16247;50.840;4.382;2023-05-20T04:00:55;11.52;;;4.20;;
29206;SDS011;16247;50.840;4.382;2023-05-20T04:03:22;10.65;;;4.53;;
29206;SDS011;16247;50.840;4.382;2023-05-20T04:05:48;8.85;;;4.93;;
29206;SDS011;16247;50.840;4.382;2023-05-20T04:08:14;12.55;;;5.00;;
29206;SDS011;16247;50.840;4.382;2023-05-20T04:10:40;7.97;;;4.38;;
29206;SDS011;16247;50.840;4.382;2023-05-20T04:13:07;6.03;;;4.47;;
29206;SDS011;16247;50.840;4.382;2023-05-20T04:15:35;13.98;;;5.10;;
29206;SDS011;16247;50.840;4.382;2023-05-20T04:18:01;8.02;;;4.40;;
29206;SDS011;16247;50.840;4.382;2023-05-20T04:20:27;9.48;;;4.70;;
29206;SDS011;16247;50.840;4.382;2023-05-20T04:22:52;6.45;;;4.60;;
29206;SDS011;16247;50.840;4.382;2023-05-20T04:25:19;10.27;;;4.72;;
29206;SDS011;16247;50.840;4.382;2023-05-20T04:27:45;9.25;;;4.75;;
29206;SDS011;16247;50.840;4.382;2023-05-20T04:30:12;11.55;;;5.38;;
29206;SDS011;16247;50.840;4.382;2023-05-20T04:32:38;8.73;;;4.32;;
29206;SDS011;16247;50.840;4.382;2023-05-20T04:35:05;12.60;;;4.78;;
29206;SDS011;16247;50.840;4.382;2023-05-20T04:37:36;9.27;;;5.43;;
29206;SDS011;16247;50.840;4.382;2023-05-20T04:40:02;13.77;;;5.15;;
29206;SDS011;16247;50.840;4.382;2023-05-20T04:44:58;9.60;;;4.28;;
29206;SDS011;16247;50.840;4.382;2023-05-20T04:47:27;8.75;;;5.68;;
29206;SDS011;16247;50.840;4.382;2023-05-20T04:49:55;10.35;;;4.90;;
29206;SDS011;16247;50.840;4.382;2023-05-20T04:52:23;11.77;;;5.05;;
29206;SDS011;16247;50.840;4.382;2023-05-20T04:54:52;10.35;;;5.30;;
29206;SDS011;16247;50.840;4.382;2023-05-20T05:06:07;11.35;;;5.28;;
29206;SDS011;16247;50.840;4.382;2023-05-20T05:08:33;12.10;;;5.25;;
29206;SDS011;16247;50.840;4.382;2023-05-20T05:10:59;10.95;;;5.63;;
29206;SDS011;16247;50.840;4.382;2023-05-20T05:13:25;9.77;;;5.28;;
29206;SDS011;16247;50.840;4.382;2023-05-20T06:00:03;12.80;;;5.80;;
29206;SDS011;16247;50.840;4.382;2023-05-20T06:02:30;10.02;;;5.97;;
29206;SDS011;16247;50.840;4.382;2023-05-20T06:05:01;11.63;;;5.60;;
29206;SDS011;16247;50.840;4.382;2023-05-20T06:07:32;10.50;;;5.78;;
29206;SDS011;16247;50.840;4.382;2023-05-20T06:10:14;13.57;;;6.53;;
29206;SDS011;16247;50.840;4.382;2023-05-20T06:12:40;11.88;;;5.28;;
29206;SDS011;16247;50.840;4.382;2023-05-20T06:15:08;10.82;;;5.90;;
29206;SDS011;16247;50.840;4.382;2023-05-20T06:17:34;7.60;;;5.43;;
29206;SDS011;16247;50.840;4.382;2023-05-20T06:20:00;9.05;;;5.95;;
29206;SDS011;16247;50.840;4.382;2023-05-20T06:22:26;10.75;;;5.90;;
29206;SDS011;16247;50.840;4.382;2023-05-20T06:24:52;12.10;;;6.15;;
29206;SDS011;16247;50.840;4.382;2023-05-20T06:27:20;9.98;;;5.32;;
29206;SDS011;16247;50.840;4.382;2023-05-20T06:29:47;13.63;;;7.80;;
29206;SDS011;16247;50.840;4.382;2023-05-20T06:32:16;9.25;;;5.30;;
29206;SDS011;16247;50.840;4.382;2023-05-20T06:34:42;11.00;;;6.00;;
29206;SDS011;16247;50.840;4.382;2023-05-20T06:37:08;9.75;;;5.55;;
29206;SDS011;16247;50.840;4.382;2023-05-20T06:39:33;10.30;;;5.10;;
29206;SDS011;16247;50.840;4.382;2023-05-20T06:41:59;10.38;;;5.57;;
29206;SDS011;16247;50.840;4.382;2023-05-20T06:46:54;11.60;;;5.78;;
29206;SDS011;16247;50.840;4.382;2023-05-20T06:49:20;8.63;;;5.20;;
29206;SDS011;16247;50.840;4.382;2023-05-20T06:51:48;8.90;;;5.10;;
29206;SDS011;16247;50.840;4.382;2023-05-20T06:54:14;7.65;;;5.68;;
29206;SDS011;16247;50.840;4.382;2023-05-20T06:56:40;8.60;;;5.55;;
29206;SDS011;16247;50.840;4.382;2023-05-20T06:59:06;10.32;;;5.65;;
29206;SDS011;16247;50.840;4.382;2023-05-20T07:01:32;11.13;;;5.07;;
29206;SDS011;16247;50.840;4.382;2023-05-20T07:03:57;7.95;;;5.07;;
29206;SDS011;16247;50.840;4.382;2023-05-20T07:06:23;10.32;;;7.05;;
29206;SDS011;16247;50.840;4.382;2023-05-20T07:08:49;9.93;;;5.50;;
29206;SDS011;16247;50.840;4.382;2023-05-20T07:11:15;8.68;;;5.10;;
29206;SDS011;16247;50.840;4.382;2023-05-20T07:13:40;12.50;;;5.13;;
29206;SDS011;16247;50.840;4.382;2023-05-20T07:16:06;12.40;;;5.53;;
29206;SDS011;16247;50.840;4.382;2023-05-20T07:18:33;11.57;;;6.88;;
29206;SDS011;16247;50.840;4.382;2023-05-20T07:20:58;8.95;;;5.38;;
29206;SDS011;16247;50.840;4.382;2023-05-20T07:23:24;9.55;;;5.10;;
29206;SDS011;16247;50.840;4.382;2023-05-20T07:25:50;16.45;;;5.97;;
29206;SDS011;16247;50.840;4.382;2023-05-20T07:28:16;9.88;;;5.80;;
29206;SDS011;16247;50.840;4.382;2023-05-20T07:30:42;12.35;;;4.80;;
29206;SDS011;16247;50.840;4.382;2023-05-20T07:33:17;8.73;;;4.97;;
29206;SDS011;16247;50.840;4.382;2023-05-20T07:35:43;10.07;;;4.72;;
29206;SDS011;16247;50.840;4.382;2023-05-20T07:38:10;11.10;;;5.72;;
29206;SDS011;16247;50.840;4.382;2023-05-20T07:40:37;9.70;;;5.32;;
29206;SDS011;16247;50.840;4.382;2023-05-20T07:43:05;10.07;;;4.60;;
29206;SDS011;16247;50.840;4.382;2023-05-20T07:45:33;11.32;;;5.05;;
29206;SDS011;16247;50.840;4.382;2023-05-20T07:48:13;6.22;;;4.32;;
29206;SDS011;16247;50.840;4.382;2023-05-20T07:50:58;11.25;;;4.93;;
29206;SDS011;16247;50.840;4.382;2023-05-20T07:53:29;8.95;;;4.80;;
29206;SDS011;16247;50.840;4.382;2023-05-20T07:55:58;8.82;;;4.85;;
29206;SDS011;16247;50.840;4.382;2023-05-20T07:58:24;8.13;;;4.20;;
29206;SDS011;16247;50.840;4.382;2023-05-20T08:00:51;7.00;;;4.43;;
29206;SDS011;16247;50.840;4.382;2023-05-20T08:03:16;9.00;;;4.22;;
29206;SDS011;16247;50.840;4.382;2023-05-20T08:05:43;7.97;;;4.28;;
29206;SDS011;16247;50.840;4.382;2023-05-20T08:08:09;7.80;;;4.45;;
29206;SDS011;16247;50.840;4.382;2023-05-20T08:10:35;6.55;;;3.92;;
29206;SDS011;16247;50.840;4.382;2023-05-20T08:13:02;8.03;;;4.10;;
29206;SDS011;16247;50.840;4.382;2023-05-20T08:15:30;8.30;;;3.42;;
29206;SDS011;16247;50.840;4.382;2023-05-20T08:17:59;5.70;;;4.00;;
29206;SDS011;16247;50.840;4.382;2023-05-20T08:23:48;8.20;;;3.63;;
29206;SDS011;16247;50.840;4.382;2023-05-20T08:26:16;6.22;;;3.67;;
29206;SDS011;16247;50.840;4.382;2023-05-20T08:28:43;8.13;;;3.83;;
29206;SDS011;16247;50.840;4.382;2023-05-20T08:31:12;6.85;;;3.50;;
29206;SDS011;16247;50.840;4.382;2023-05-20T08:33:38;12.93;;;3.83;;
29206;SDS011;16247;50.840;4.382;2023-05-20T08:36:04;11.88;;;4.05;;
29206;SDS011;16247;50.840;4.382;2023-05-20T08:38:32;7.78;;;3.47;;
29206;SDS011;16247;50.840;4.382;2023-05-20T08:40:58;6.13;;;3.65;;
29206;SDS011;16247;50.840;4.382;2023-05-20T08:43:24;7.68;;;3.33;;
29206;SDS011;16247;50.840;4.382;2023-05-20T08:45:53;4.80;;;3.13;;
29206;SDS011;16247;50.840;4.382;2023-05-20T08:50:51;7.85;;;3.35;;
29206;SDS011;16247;50.840;4.382;2023-05-20T08:53:21;5.45;;;3.05;;
29206;SDS011;16247;50.840;4.382;2023-05-20T08:55:51;5.57;;;3.00;;
29206;SDS011;16247;50.840;4.382;2023-05-20T08:58:21;10.50;;;2.90;;
29206;SDS011;16247;50.840;4.382;2023-05-20T09:00:50;8.07;;;2.80;;
29206;SDS011;16247;50.840;4.382;2023-05-20T09:03:17;10.37;;;3.87;;
29206;SDS011;16247;50.840;4.382;2023-05-20T09:05:45;8.50;;;3.30;;
29206;SDS011;16247;50.840;4.382;2023-05-20T09:08:11;5.70;;;3.35;;
29206;SDS011;16247;50.840;4.382;2023-05-20T09:10:41;8.10;;;3.70;;
29206;SDS011;16247;50.840;4.382;2023-05-20T09:13:07;6.10;;;2.67;;
29206;SDS011;16247;50.840;4.382;2023-05-20T09:15:36;9.30;;;3.00;;
29206;SDS011;16247;50.840;4.382;2023-05-20T09:18:02;6.95;;;3.78;;
29206;SDS011;16247;50.840;4.382;2023-05-20T09:20:29;6.68;;;3.05;;
29206;SDS011;16247;50.840;4.382;2023-05-20T09:22:58;6.63;;;2.92;;
29206;SDS011;16247;50.840;4.382;2023-05-20T09:25:28;6.18;;;3.08;;
29206;SDS011;16247;50.840;4.382;2023-05-20T09:27:53;4.82;;;2.85;;
29206;SDS011;16247;50.840;4.382;2023-05-20T09:30:20;10.93;;;3.17;;
29206;SDS011;16247;50.840;4.382;2023-05-20T09:32:56;10.52;;;3.33;;
29206;SDS011;16247;50.840;4.382;2023-05-20T09:35:23;5.13;;;2.88;;
29206;SDS011;16247;50.840;4.382;2023-05-20T09:37:54;3.50;;;2.20;;
29206;SDS011;16247;50.840;4.382;2023-05-20T09:40:27;3.35;;;2.80;;
29206;SDS011;16247;50.840;4.382;2023-05-20T09:42:55;7.43;;;3.08;;
29206;SDS011;16247;50.840;4.382;2023-05-20T09:45:23;8.23;;;3.03;;
29206;SDS011;16247;50.840;4.382;2023-05-20T09:47:50;5.53;;;3.30;;
29206;SDS011;16247;50.840;4.382;2023-05-20T09:50:17;6.68;;;3.15;;
29206;SDS011;16247;50.840;4.382;2023-05-20T09:52:45;6.07;;;2.60;;
29206;SDS011;16247;50.840;4.382;2023-05-20T09:57:39;11.30;;;2.78;;
29206;SDS011;16247;50.840;4.382;2023-05-20T10:00:06;4.32;;;2.58;;
29206;SDS011;16247;50.840;4.382;2023-05-20T10:02:37;6.68;;;2.60;;
29206;SDS011;16247;50.840;4.382;2023-05-20T10:05:06;7.95;;;2.83;;
29206;SDS011;16247;50.840;4.382;2023-05-20T10:16:12;4.15;;;2.60;;
29206;SDS011;16247;50.840;4.382;2023-05-20T10:18:51;3.78;;;2.50;;
29206;SDS011;16247;50.840;4.382;2023-05-20T10:21:34;4.50;;;2.80;;
29206;SDS011;16247;50.840;4.382;2023-05-20T10:24:07;5.20;;;2.58;;
29206;SDS011;16247;50.840;4.382;2023-05-20T10:26:38;8.20;;;2.45;;
29206;SDS011;16247;50.840;4.382;2023-05-20T10:29:18;5.43;;;2.65;;
29206;SDS011;16247;50.840;4.382;2023-05-20T10:31:50;6.18;;;2.40;;
29206;SDS011;16247;50.840;4.382;2023-05-20T10:34:18;4.10;;;3.13;;
29206;SDS011;16247;50.840;4.382;2023-05-20T10:36:46;6.65;;;2.55;;
29206;SDS011;16247;50.840;4.382;2023-05-20T10:39:26;7.28;;;2.90;;
29206;SDS011;16247;50.840;4.382;2023-05-20T10:42:03;14.18;;;3.47;;
29206;SDS011;16247;50.840;4.382;2023-05-20T10:44:43;9.32;;;3.15;;
29206;SDS011;16247;50.840;4.382;2023-05-20T10:47:10;4.32;;;2.30;;
29206;SDS011;16247;50.840;4.382;2023-05-20T10:49:40;7.70;;;2.83;;
29206;SDS011;16247;50.840;4.382;2023-05-20T10:52:10;4.45;;;2.35;;
29206;SDS011;16247;50.840;4.382;2023-05-20T10:54:43;4.85;;;2.90;;
29206;SDS011;16247;50.840;4.382;2023-05-20T10:57:20;7.43;;;2.88;;
29206;SDS011;16247;50.840;4.382;2023-05-20T10:59:46;3.97;;;2.80;;
29206;SDS011;16247;50.840;4.382;2023-05-20T11:02:16;6.55;;;2.67;;
29206;SDS011;16247;50.840;4.382;2023-05-20T11:04:44;5.72;;;2.78;;
29206;SDS011;16247;50.840;4.382;2023-05-20T11:07:11;6.82;;;2.92;;
29206;SDS011;16247;50.840;4.382;2023-05-20T11:09:37;4.90;;;2.85;;
29206;SDS011;16247;50.840;4.382;2023-05-20T11:12:02;4.82;;;2.80;;
29206;SDS011;16247;50.840;4.382;2023-05-20T11:14:29;4.93;;;2.13;;
29206;SDS011;16247;50.840;4.382;2023-05-20T11:16:55;4.90;;;2.42;;
29206;SDS011;16247;50.840;4.382;2023-05-20T11:19:25;3.88;;;2.40;;
29206;SDS011;16247;50.840;4.382;2023-05-20T11:21:51;4.85;;;2.45;;
29206;SDS011;16247;50.840;4.382;2023-05-20T11:24:22;4.28;;;2.70;;
29206;SDS011;16247;50.840;4.382;2023-05-20T11:26:52;7.30;;;2.70;;
29206;SDS011;16247;50.840;4.382;2023-05-20T11:29:21;7.05;;;2.58;;
29206;SDS011;16247;50.840;4.382;2023-05-20T11:31:50;3.80;;;2.80;;
29206;SDS011;16247;50.840;4.382;2023-05-20T11:34:22;5.63;;;3.10;;
29206;SDS011;16247;50.840;4.382;2023-05-20T11:36:56;7.30;;;3.03;;
29206;SDS011;16247;50.840;4.382;2023-05-20T11:39:22;7.20;;;3.15;;
29206;SDS011;16247;50.840;4.382;2023-05-20T11:41:48;4.30;;;3.05;;
29206;SDS011;16247;50.840;4.382;2023-05-20T11:44:14;6.30;;;2.85;;
29206;SDS011;16247;50.840;4.382;2023-05-20T11:46:44;9.10;;;3.25;;
29206;SDS011;16247;50.840;4.382;2023-05-20T11:49:14;6.90;;;2.80;;
29206;SDS011;16247;50.840;4.382;2023-05-20T11:51:41;3.15;;;2.47;;
29206;SDS011;16247;50.840;4.382;2023-05-20T11:56:35;6.43;;;2.63;;
29206;SDS011;16247;50.840;4.382;2023-05-20T11:59:07;4.53;;;2.45;;
29206;SDS011;16247;50.840;4.382;2023-05-20T12:01:34;3.58;;;2.63;;
29206;SDS011;16247;50.840;4.382;2023-05-20T12:04:02;3.83;;;2.65;;
29206;SDS011;16247;50.840;4.382;2023-05-20T12:06:29;4.70;;;3.10;;
29206;SDS011;16247;50.840;4.382;2023-05-20T12:08:55;6.63;;;3.17;;
29206;SDS011;16247;50.840;4.382;2023-05-20T12:11:22;7.90;;;3.75;;
29206;SDS011;16247;50.840;4.382;2023-05-20T12:13:48;11.90;;;3.75;;
29206;SDS011;16247;50.840;4.382;2023-05-20T12:16:14;5.72;;;2.55;;
29206;SDS011;16247;50.840;4.382;2023-05-20T12:18:39;5.50;;;2.92;;
29206;SDS011;16247;50.840;4.382;2023-05-20T12:21:05;6.45;;;2.63;;
29206;SDS011;16247;50.840;4.382;2023-05-20T12:23:31;6.30;;;3.10;;
29206;SDS011;16247;50.840;4.382;2023-05-20T12:25:58;5.25;;;2.72;;
29206;SDS011;16247;50.840;4.382;2023-05-20T12:28:25;5.03;;;2.80;;
29206;SDS011;16247;50.840;4.382;2023-05-20T12:30:50;5.25;;;2.72;;
29206;SDS011;16247;50.840;4.382;2023-05-20T12:33:18;4.35;;;2.85;;
29206;SDS011;16247;50.840;4.382;2023-05-20T12:35:44;4.05;;;2.60;;
29206;SDS011;16247;50.840;4.382;2023-05-20T12:38:10;6.53;;;3.15;;
29206;SDS011;16247;50.840;4.382;2023-05-20T12:40:36;5.85;;;2.80;;
29206;SDS011;16247;50.840;4.382;2023-05-20T12:43:02;5.88;;;2.60;;
29206;SDS011;16247;50.840;4.382;2023-05-20T12:45:29;4.55;;;2.90;;
29206;SDS011;16247;50.840;4.382;2023-05-20T12:47:55;5.50;;;3.45;;
29206;SDS011;16247;50.840;4.382;2023-05-20T12:50:21;6.93;;;3.47;;
29206;SDS011;16247;50.840;4.382;2023-05-20T12:52:47;5.60;;;2.67;;
29206;SDS011;16247;50.840;4.382;2023-05-20T12:55:13;4.80;;;2.58;;
29206;SDS011;16247;50.840;4.382;2023-05-20T12:57:39;5.72;;;3.15;;
29206;SDS011;16247;50.840;4.382;2023-05-20T13:00:06;7.10;;;2.72;;
29206;SDS011;16247;50.840;4.382;2023-05-20T13:02:34;3.75;;;2.28;;
29206;SDS011;16247;50.840;4.382;2023-05-20T13:05:01;4.88;;;2.10;;
29206;SDS011;16247;50.840;4.382;2023-05-20T13:07:27;6.82;;;3.35;;
29206;SDS011;16247;50.840;4.382;2023-05-20T13:09:52;4.22;;;3.00;;
29206;SDS011;16247;50.840;4.382;2023-05-20T13:12:18;6.70;;;2.70;;
29206;SDS011;16247;50.840;4.382;2023-05-20T13:14:43;5.05;;;3.03;;
29206;SDS011;16247;50.840;4.382;2023-05-20T13:17:10;4.45;;;2.40;;
29206;SDS011;16247;50.840;4.382;2023-05-20T13:19:37;6.18;;;2.33;;
29206;SDS011;16247;50.840;4.382;2023-05-20T13:22:03;7.35;;;2.75;;
29206;SDS011;16247;50.840;4.382;2023-05-20T13:24:30;4.90;;;2.75;;
29206;SDS011;16247;50.840;4.382;2023-05-20T13:26:57;4.10;;;2.47;;
29206;SDS011;16247;50.840;4.382;2023-05-20T13:29:25;5.88;;;2.40;;
29206;SDS011;16247;50.840;4.382;2023-05-20T13:31:53;3.92;;;2.53;;
29206;SDS011;16247;50.840;4.382;2023-05-20T13:34:19;7.43;;;2.47;;
29206;SDS011;16247;50.840;4.382;2023-05-20T13:36:45;2.42;;;2.22;;
29206;SDS011;16247;50.840;4.382;2023-05-20T13:39:21;4.07;;;2.08;;
29206;SDS011;16247;50.840;4.382;2023-05-20T13:41:47;4.53;;;2.75;;
29206;SDS011;16247;50.840;4.382;2023-05-20T13:44:14;7.38;;;2.60;;
29206;SDS011;16247;50.840;4.382;2023-05-20T13:46:40;4.55;;;2.53;;
29206;SDS011;16247;50.840;4.382;2023-05-20T13:49:05;3.92;;;2.58;;
29206;SDS011;16247;50.840;4.382;2023-05-20T13:51:31;5.15;;;2.85;;
29206;SDS011;16247;50.840;4.382;2023-05-20T13:53:57;4.50;;;2.30;;
29206;SDS011;16247;50.840;4.382;2023-05-20T13:56:22;3.35;;;2.50;;
29206;SDS011;16247;50.840;4.382;2023-05-20T13:58:49;3.70;;;2.83;;
29206;SDS011;16247;50.840;4.382;2023-05-20T14:01:15;5.22;;;2.55;;
29206;SDS011;16247;50.840;4.382;2023-05-20T14:03:40;3.20;;;2.90;;
29206;SDS011;16247;50.840;4.382;2023-05-20T14:06:08;5.00;;;2.50;;
29206;SDS011;16247;50.840;4.382;2023-05-20T14:08:34;2.58;;;2.38;;
29206;SDS011;16247;50.840;4.382;2023-05-20T14:11:00;4.82;;;2.63;;
29206;SDS011;16247;50.840;4.382;2023-05-20T14:13:27;7.45;;;3.15;;
29206;SDS011;16247;50.840;4.382;2023-05-20T14:15:54;6.90;;;2.45;;
29206;SDS011;16247;50.840;4.382;2023-05-20T14:18:20;5.70;;;2.58;;
29206;SDS011;16247;50.840;4.382;2023-05-20T14:20:46;4.57;;;2.40;;
29206;SDS011;16247;50.840;4.382;2023-05-20T14:23:12;6.57;;;2.20;;
29206;SDS011;16247;50.840;4.382;2023-05-20T14:25:38;4.25;;;2.53;;
29206;SDS011;16247;50.840;4.382;2023-05-20T14:28:04;6.68;;;3.13;;
29206;SDS011;16247;50.840;4.382;2023-05-20T14:30:30;4.05;;;2.67;;
29206;SDS011;16247;50.840;4.382;2023-05-20T14:32:56;2.72;;;2.28;;
29206;SDS011;16247;50.840;4.382;2023-05-20T14:35:21;7.18;;;2.90;;
29206;SDS011;16247;50.840;4.382;2023-05-20T14:37:48;4.57;;;2.35;;
29206;SDS011;16247;50.840;4.382;2023-05-20T14:40:14;6.80;;;2.53;;
29206;SDS011;16247;50.840;4.382;2023-05-20T14:42:41;5.40;;;2.92;;
29206;SDS011;16247;50.840;4.382;2023-05-20T14:45:07;4.25;;;2.13;;
29206;SDS011;16247;50.840;4.382;2023-05-20T14:47:33;3.00;;;2.45;;
29206;SDS011;16247;50.840;4.382;2023-05-20T14:49:59;7.05;;;2.30;;
29206;SDS011;16247;50.840;4.382;2023-05-20T14:52:24;6.25;;;2.63;;
29206;SDS011;16247;50.840;4.382;2023-05-20T14:54:50;4.20;;;2.35;;
29206;SDS011;16247;50.840;4.382;2023-05-20T14:57:17;5.68;;;2.85;;
29206;SDS011;16247;50.840;4.382;2023-05-20T14:59:43;4.07;;;2.35;;
29206;SDS011;16247;50.840;4.382;2023-05-20T15:02:09;5.93;;;2.90;;
29206;SDS011;16247;50.840;4.382;2023-05-20T15:04:34;3.90;;;2.42;;
29206;SDS011;16247;50.840;4.382;2023-05-20T15:07:00;4.97;;;2.60;;
29206;SDS011;16247;50.840;4.382;2023-05-20T15:09:26;5.05;;;3.08;;
29206;SDS011;16247;50.840;4.382;2023-05-20T15:11:52;3.35;;;2.22;;
29206;SDS011;16247;50.840;4.382;2023-05-20T15:14:17;3.10;;;2.53;;
29206;SDS011;16247;50.840;4.382;2023-05-20T15:16:44;7.72;;;2.40;;
29206;SDS011;16247;50.840;4.382;2023-05-20T15:19:11;4.68;;;2.55;;
29206;SDS011;16247;50.840;4.382;2023-05-20T15:21:37;5.07;;;2.60;;
29206;SDS011;16247;50.840;4.382;2023-05-20T15:24:03;5.22;;;2.60;;
29206;SDS011;16247;50.840;4.382;2023-05-20T15:26:31;3.63;;;2.70;;
29206;SDS011;16247;50.840;4.382;2023-05-20T15:28:58;9.10;;;2.35;;
29206;SDS011;16247;50.840;4.382;2023-05-20T15:31:24;3.05;;;2.58;;
29206;SDS011;16247;50.840;4.382;2023-05-20T15:33:49;4.20;;;2.78;;
29206;SDS011;16247;50.840;4.382;2023-05-20T15:36:15;5.43;;;2.45;;
29206;SDS011;16247;50.840;4.382;2023-05-20T15:38:42;8.48;;;2.60;;
29206;SDS011;16247;50.840;4.382;2023-05-20T15:41:09;5.38;;;2.28;;
29206;SDS011;16247;50.840;4.382;2023-05-20T15:43:37;5.78;;;2.38;;
29206;SDS011;16247;50.840;4.382;2023-05-20T15:46:03;4.53;;;2.80;;
29206;SDS011;16247;50.840;4.382;2023-05-20T15:48:28;4.72;;;3.03;;
29206;SDS011;16247;50.840;4.382;2023-05-20T15:50:54;6.35;;;2.70;;
29206;SDS011;16247;50.840;4.382;2023-05-20T15:53:20;5.78;;;2.35;;
29206;SDS011;16247;50.840;4.382;2023-05-20T15:55:45;4.65;;;2.28;;
29206;SDS011;16247;50.840;4.382;2023-05-20T15:58:11;5.82;;;2.85;;
29206;SDS011;16247;50.840;4.382;2023-05-20T16:00:43;4.65;;;3.03;;
29206;SDS011;16247;50.840;4.382;2023-05-20T16:03:09;4.20;;;3.03;;
29206;SDS011;16247;50.840;4.382;2023-05-20T16:05:35;5.75;;;2.90;;
29206;SDS011;16247;50.840;4.382;2023-05-20T16:08:04;5.47;;;3.05;;
29206;SDS011;16247;50.840;4.382;2023-05-20T16:10:30;4.45;;;2.90;;